Portada
METAR-TAF:

METAR-TAF

Aeropuertos :

Johnson County Executive Airport

Olathe, Kansas, Estados Unidos

latitud: 38-51-00N, longitud: 094-44-21W, altitud: 334 m

Observación

El informe se hizo hace 37 minutos, a las 09:53 UTC
Viento 10 kt del norte-noroeste
Temperatura 11°C
Humedad 76%
Presión 1017 hPa
Visibilidad: 16.1 km
Escasas nubes a una altura de 10000 ft

METAR: KOJC 310953Z AUTO 33010KT 10SM FEW100 11/07 A3003 RMK AO2 SLP167 T01060067

Hora: 05:30 (10:30 UTC)


TAF: falta

Observaciones y pronósticos meteorológicos de más de 4000 aeropuertos (mensajes METAR y TAF).

Los puntos amarillos y rojos representan las estaciones disponibles.

Ponga el ratón en el punto deseado para ver el nombre de la estación.

Haga clic para ver las observaciones y los pronósticos meteorológicos.

Para cambiar el mapa : haga clic en los botones verdes con una cruz de color negro para hacer un zoom, en el botón verde con un guión para alejar o en las flechas verdes para mapas adyacentes.


METAR-TAF: